createdAt,value
2018-09-24T00:00:32.524Z,21.19
2018-09-24T00:01:32.598Z,21.19
2018-09-24T00:02:32.738Z,21.19
2018-09-24T00:03:32.714Z,21.21
2018-09-24T00:04:32.719Z,21.19
2018-09-24T00:05:32.853Z,21.19
2018-09-24T00:06:32.451Z,21.19
2018-09-24T00:07:32.718Z,21.19
2018-09-24T00:08:32.770Z,21.19
2018-09-24T00:09:32.639Z,21.19
2018-09-24T00:10:32.701Z,21.18
2018-09-24T00:11:32.712Z,21.18
2018-09-24T00:12:32.571Z,21.18
2018-09-24T00:13:32.673Z,21.21
2018-09-24T00:14:32.771Z,21.19
2018-09-24T00:15:32.887Z,21.18
2018-09-24T00:16:32.517Z,21.16
2018-09-24T00:17:32.856Z,21.18
2018-09-24T00:18:32.742Z,21.18
2018-09-24T00:19:32.693Z,21.18
2018-09-24T00:20:32.491Z,21.18
2018-09-24T00:21:32.661Z,21.19
2018-09-24T00:22:32.439Z,21.18
2018-09-24T00:23:32.548Z,21.18
2018-09-24T00:24:32.496Z,21.19
2018-09-24T00:25:32.669Z,21.19
2018-09-24T00:26:32.626Z,21.19
2018-09-24T00:27:32.448Z,21.16
2018-09-24T00:28:32.752Z,21.16
2018-09-24T00:29:32.649Z,21.15
2018-09-24T00:30:32.612Z,21.15
2018-09-24T00:31:32.636Z,21.16
2018-09-24T00:32:32.450Z,21.15
2018-09-24T00:33:32.675Z,21.15
2018-09-24T00:34:32.418Z,21.14
2018-09-24T00:35:32.650Z,21.14
2018-09-24T00:36:32.870Z,21.15
2018-09-24T00:37:32.542Z,21.16
2018-09-24T00:38:32.896Z,21.15
2018-09-24T00:39:32.618Z,21.15
2018-09-24T00:40:32.711Z,21.15
2018-09-24T00:41:32.532Z,21.15
2018-09-24T00:42:32.890Z,21.14
2018-09-24T00:43:33.306Z,21.12
2018-09-24T00:44:32.615Z,21.16
2018-09-24T00:45:32.729Z,21.14
2018-09-24T00:46:32.650Z,21.16
2018-09-24T00:47:32.760Z,21.15
2018-09-24T00:48:32.822Z,21.14
2018-09-24T00:49:32.431Z,21.15
2018-09-24T00:50:32.862Z,21.15
2018-09-24T00:51:32.865Z,21.12
2018-09-24T00:52:32.567Z,21.16
2018-09-24T00:53:32.845Z,21.16
2018-09-24T00:54:32.868Z,21.19
2018-09-24T00:55:32.696Z,21.16
2018-09-24T00:56:32.822Z,21.16
2018-09-24T00:57:32.701Z,21.16
2018-09-24T00:58:32.385Z,21.15
2018-09-24T00:59:32.632Z,21.14
2018-09-24T01:00:32.889Z,21.12
2018-09-24T01:01:32.648Z,21.15
2018-09-24T01:02:32.713Z,21.15
2018-09-24T01:03:32.529Z,21.15
2018-09-24T01:04:32.844Z,21.16
2018-09-24T01:05:32.941Z,21.14
2018-09-24T01:06:32.481Z,21.15
2018-09-24T01:07:32.666Z,21.14
2018-09-24T01:08:32.727Z,21.14
2018-09-24T01:09:32.795Z,21.14
2018-09-24T01:10:32.617Z,21.14
2018-09-24T01:11:32.758Z,21.14
2018-09-24T01:12:32.792Z,21.14
2018-09-24T01:13:32.532Z,21.12
2018-09-24T01:14:32.804Z,21.12
2018-09-24T01:15:32.958Z,21.16
2018-09-24T01:16:32.708Z,21.12
2018-09-24T01:17:32.425Z,21.14
2018-09-24T01:18:32.673Z,21.14
2018-09-24T01:19:32.701Z,21.11
2018-09-24T01:20:33.177Z,21.11
2018-09-24T01:21:32.883Z,21.12
2018-09-24T01:22:32.670Z,21.12
2018-09-24T01:23:32.774Z,21.14
2018-09-24T01:24:32.757Z,21.14
2018-09-24T01:25:32.452Z,21.12
2018-09-24T01:26:32.896Z,21.15
2018-09-24T01:27:32.652Z,21.15
2018-09-24T01:28:32.721Z,21.14
2018-09-24T01:29:32.872Z,21.11
2018-09-24T01:30:32.512Z,21.09
2018-09-24T01:31:32.838Z,21.12
2018-09-24T01:32:32.516Z,21.11
2018-09-24T01:33:33.113Z,21.12
2018-09-24T01:34:32.986Z,21.12
2018-09-24T01:35:32.831Z,21.11
2018-09-24T01:36:32.512Z,21.12
2018-09-24T01:37:32.770Z,21.11
2018-09-24T01:38:32.801Z,21.11
2018-09-24T01:39:32.787Z,21.11
2018-09-24T01:40:32.648Z,21.12
2018-09-24T01:41:32.843Z,21.09
2018-09-24T01:42:32.698Z,21.11
2018-09-24T01:43:32.568Z,21.11
2018-09-24T01:44:32.599Z,21.09
2018-09-24T01:45:33.034Z,21.09
2018-09-24T01:46:32.941Z,21.11
2018-09-24T01:47:32.495Z,21.12
2018-09-24T01:48:32.506Z,21.11
2018-09-24T01:49:32.695Z,21.11
2018-09-24T01:50:32.704Z,21.11
2018-09-24T01:51:32.729Z,21.09
2018-09-24T01:52:32.449Z,21.09
2018-09-24T01:53:32.610Z,21.09
2018-09-24T01:54:32.600Z,21.08
2018-09-24T01:55:32.361Z,21.05
2018-09-24T01:56:32.722Z,21.08
2018-09-24T01:57:32.532Z,21.06
2018-09-24T01:58:32.653Z,21.06
2018-09-24T01:59:32.601Z,21.09
2018-09-24T02:00:32.597Z,21.08
2018-09-24T02:01:32.513Z,21.09
2018-09-24T02:02:32.364Z,21.09
2018-09-24T02:03:32.970Z,21.09
2018-09-24T02:04:32.595Z,21.08
2018-09-24T02:05:32.665Z,21.11
2018-09-24T02:06:32.633Z,21.08
2018-09-24T02:07:32.694Z,21.08
2018-09-24T02:08:32.685Z,21.08
2018-09-24T02:09:32.523Z,21.08
2018-09-24T02:10:32.522Z,21.08
2018-09-24T02:11:32.556Z,21.09
2018-09-24T02:12:32.585Z,21.08
2018-09-24T02:13:32.625Z,21.09
2018-09-24T02:14:32.626Z,21.11
2018-09-24T02:15:32.768Z,21.08
2018-09-24T02:16:32.674Z,21.09
2018-09-24T02:17:32.439Z,21.08
2018-09-24T02:18:32.698Z,21.06
2018-09-24T02:19:32.860Z,21.09
2018-09-24T02:20:32.697Z,21.11
2018-09-24T02:21:32.801Z,21.06
2018-09-24T02:22:32.372Z,21.05
2018-09-24T02:23:32.491Z,21.08
2018-09-24T02:24:32.876Z,21.06
2018-09-24T02:25:32.705Z,21.09
2018-09-24T02:26:32.504Z,21.11
2018-09-24T02:27:32.929Z,21.09
2018-09-24T02:28:32.743Z,21.08
2018-09-24T02:29:32.501Z,21.06
2018-09-24T02:30:32.762Z,21.06
2018-09-24T02:31:32.370Z,21.06
2018-09-24T02:32:32.422Z,21.09
2018-09-24T02:33:32.763Z,21.06
2018-09-24T02:34:32.648Z,21.06
2018-09-24T02:35:32.603Z,21.08
2018-09-24T02:36:32.442Z,21.06
2018-09-24T02:37:32.815Z,21.08
2018-09-24T02:38:32.597Z,21.05
2018-09-24T02:39:32.416Z,21.06
2018-09-24T02:40:32.487Z,21.06
2018-09-24T02:41:32.614Z,21.06
2018-09-24T02:42:32.435Z,21.06
2018-09-24T02:43:32.641Z,21.03
2018-09-24T02:44:32.783Z,21.05
2018-09-24T02:45:32.742Z,21.06
2018-09-24T02:46:32.551Z,21.08
2018-09-24T02:47:32.509Z,21.03
2018-09-24T02:48:32.596Z,21.03
2018-09-24T02:49:32.502Z,21.03
2018-09-24T02:50:32.798Z,21.03
2018-09-24T02:51:32.488Z,21.05
2018-09-24T02:52:32.699Z,21.05
2018-09-24T02:53:32.719Z,21.06
2018-09-24T02:54:32.627Z,21.03
2018-09-24T02:55:32.743Z,21.05
2018-09-24T02:56:32.490Z,21.05
2018-09-24T02:57:32.960Z,21.02
2018-09-24T02:58:32.961Z,21.02
2018-09-24T02:59:32.632Z,21.03
2018-09-24T03:00:32.604Z,21.02
2018-09-24T03:01:32.464Z,21.05
2018-09-24T03:02:32.600Z,21.03
2018-09-24T03:03:33.035Z,21.05
2018-09-24T03:04:32.823Z,21.05
2018-09-24T03:05:32.503Z,21.03
2018-09-24T03:06:32.727Z,21.05
2018-09-24T03:07:32.448Z,21.05
2018-09-24T03:08:32.441Z,21.06
2018-09-24T03:09:32.539Z,21.05
2018-09-24T03:10:32.345Z,21.05
2018-09-24T03:11:32.423Z,21.05
2018-09-24T03:12:32.689Z,21.03
2018-09-24T03:13:32.358Z,21.05
2018-09-24T03:14:32.465Z,21.03
2018-09-24T03:15:32.445Z,21.05
2018-09-24T03:16:32.658Z,21.05
2018-09-24T03:17:32.572Z,21.03
2018-09-24T03:18:32.452Z,21.05
2018-09-24T03:19:32.669Z,21.03
2018-09-24T03:20:32.438Z,21.03
2018-09-24T03:21:32.576Z,21.03
2018-09-24T03:22:32.620Z,21.02
2018-09-24T03:23:32.459Z,21.03
2018-09-24T03:24:32.494Z,21.01
2018-09-24T03:25:32.550Z,21.02
2018-09-24T03:26:32.571Z,21.02
2018-09-24T03:27:32.659Z,21.02
2018-09-24T03:28:32.405Z,21.01
2018-09-24T03:29:32.386Z,21.01
2018-09-24T03:30:32.766Z,21.01
2018-09-24T03:31:32.613Z,21.05
2018-09-24T03:32:32.870Z,21.02
2018-09-24T03:33:32.790Z,21.02
2018-09-24T03:34:33.095Z,21.02
2018-09-24T03:35:32.622Z,21.02
2018-09-24T03:36:32.715Z,21.03
2018-09-24T03:37:32.760Z,21.01
2018-09-24T03:38:32.513Z,20.99
2018-09-24T03:39:32.486Z,20.99
2018-09-24T03:40:32.412Z,20.99
2018-09-24T03:41:32.831Z,20.99
2018-09-24T03:42:32.349Z,20.99
2018-09-24T03:43:32.877Z,20.98
2018-09-24T03:44:32.769Z,21.01
2018-09-24T03:45:32.576Z,20.99
2018-09-24T03:46:32.709Z,21.01
2018-09-24T03:47:32.623Z,21.02
2018-09-24T03:48:32.594Z,21.01
2018-09-24T03:49:32.485Z,21.01
2018-09-24T03:50:32.436Z,20.99
2018-09-24T03:51:32.362Z,21.01
2018-09-24T03:52:32.414Z,21.01
2018-09-24T03:53:32.384Z,20.99
2018-09-24T03:54:32.414Z,21.01
2018-09-24T03:55:32.725Z,21.02
2018-09-24T03:56:32.592Z,21.03
2018-09-24T03:57:32.460Z,21.02
2018-09-24T03:58:32.742Z,21.01
2018-09-24T03:59:32.448Z,21.02
2018-09-24T04:00:32.542Z,21.02
2018-09-24T04:01:32.503Z,20.99
2018-09-24T04:02:32.391Z,20.98
2018-09-24T04:03:32.838Z,21.01
2018-09-24T04:04:32.703Z,20.99
2018-09-24T04:05:32.658Z,21.01
2018-09-24T04:06:32.518Z,21.01
2018-09-24T04:07:32.359Z,20.99
2018-09-24T04:08:32.595Z,21.01
2018-09-24T04:09:33.308Z,20.98
2018-09-24T04:10:32.618Z,20.99
2018-09-24T04:11:32.513Z,20.98
2018-09-24T04:12:32.787Z,20.99
2018-09-24T04:13:32.455Z,20.99
2018-09-24T04:14:32.761Z,20.98
2018-09-24T04:15:32.578Z,20.99
2018-09-24T04:16:32.809Z,21.02
2018-09-24T04:17:32.854Z,21.02
2018-09-24T04:18:32.544Z,21.02
2018-09-24T04:19:34.131Z,21.01
2018-09-24T04:20:32.728Z,21.01
2018-09-24T04:21:32.481Z,20.99
2018-09-24T04:22:32.476Z,20.99
2018-09-24T04:23:32.664Z,20.99
2018-09-24T04:24:32.738Z,20.98
2018-09-24T04:25:32.374Z,21.01
2018-09-24T04:26:32.782Z,20.98
2018-09-24T04:27:32.768Z,20.98
2018-09-24T04:28:32.460Z,20.98
2018-09-24T04:29:32.437Z,21.02
2018-09-24T04:30:32.602Z,20.99
2018-09-24T04:31:32.527Z,20.99
2018-09-24T04:32:32.420Z,20.99
2018-09-24T04:33:32.408Z,20.99
2018-09-24T04:34:32.585Z,20.98
2018-09-24T04:35:32.380Z,20.95
2018-09-24T04:36:32.620Z,20.97
2018-09-24T04:37:32.536Z,20.97
2018-09-24T04:38:32.351Z,20.95
2018-09-24T04:39:33.765Z,20.97
2018-09-24T04:40:32.665Z,20.98
2018-09-24T04:41:32.579Z,20.97
2018-09-24T04:42:32.524Z,20.97
2018-09-24T04:43:32.631Z,20.99
2018-09-24T04:44:32.649Z,20.99
2018-09-24T04:45:32.590Z,20.99
2018-09-24T04:46:32.703Z,20.98
2018-09-24T04:47:32.490Z,20.98
2018-09-24T04:48:32.377Z,20.99
2018-09-24T04:49:32.489Z,20.98
2018-09-24T04:50:32.532Z,20.98
2018-09-24T04:51:32.687Z,20.98
2018-09-24T04:52:32.684Z,20.98
2018-09-24T04:53:32.835Z,20.97
2018-09-24T04:54:32.320Z,21.02
2018-09-24T04:55:32.604Z,20.97
2018-09-24T04:56:32.366Z,20.97
2018-09-24T04:57:32.483Z,20.98
2018-09-24T04:58:33.553Z,20.99
2018-09-24T04:59:32.374Z,21.01
2018-09-24T05:00:32.382Z,20.98
2018-09-24T05:01:32.757Z,20.98
2018-09-24T05:02:32.471Z,20.98
2018-09-24T05:03:32.839Z,20.98
2018-09-24T05:04:32.484Z,20.98
2018-09-24T05:05:32.484Z,20.98
2018-09-24T05:06:32.405Z,20.98
2018-09-24T05:07:32.811Z,20.98
2018-09-24T05:08:32.821Z,20.98
2018-09-24T05:09:32.711Z,20.98
2018-09-24T05:10:32.757Z,20.99
2018-09-24T05:11:32.418Z,20.98
2018-09-24T05:12:32.355Z,20.98
2018-09-24T05:13:32.673Z,20.98
2018-09-24T05:14:32.605Z,21.01
2018-09-24T05:15:32.563Z,20.97
2018-09-24T05:16:32.910Z,20.95
2018-09-24T05:17:32.516Z,20.97
2018-09-24T05:18:32.614Z,20.97
2018-09-24T05:19:32.385Z,20.97
2018-09-24T05:20:32.430Z,20.98
2018-09-24T05:21:32.419Z,20.97
2018-09-24T05:22:32.326Z,20.97
2018-09-24T05:23:32.460Z,20.99
2018-09-24T05:24:32.318Z,20.99
2018-09-24T05:25:32.475Z,20.98
2018-09-24T05:26:32.500Z,20.99
2018-09-24T05:27:32.480Z,20.99
2018-09-24T05:28:32.489Z,21.01
2018-09-24T05:29:32.713Z,20.99
2018-09-24T05:30:32.732Z,20.98
2018-09-24T05:31:32.452Z,20.98
2018-09-24T05:32:32.986Z,20.98
2018-09-24T05:33:32.482Z,20.99
2018-09-24T05:34:34.054Z,20.99
2018-09-24T05:35:32.670Z,21.01
2018-09-24T05:36:32.785Z,20.99
2018-09-24T05:37:32.899Z,20.98
2018-09-24T05:38:32.360Z,20.97
2018-09-24T05:39:32.401Z,20.97
2018-09-24T05:40:32.484Z,20.95
2018-09-24T05:41:32.789Z,20.95
2018-09-24T05:42:32.448Z,20.98
2018-09-24T05:43:32.556Z,20.97
2018-09-24T05:44:32.599Z,20.97
2018-09-24T05:45:32.594Z,20.97
2018-09-24T05:46:32.420Z,20.97
2018-09-24T05:47:32.437Z,20.94
2018-09-24T05:48:33.475Z,20.97
2018-09-24T05:49:32.446Z,20.95
2018-09-24T05:50:32.559Z,20.98
2018-09-24T05:51:32.453Z,20.97
2018-09-24T05:52:33.003Z,20.98
2018-09-24T05:53:32.430Z,20.97
2018-09-24T05:54:32.656Z,20.97
2018-09-24T05:55:32.404Z,20.97
2018-09-24T05:56:32.568Z,20.95
2018-09-24T05:57:32.373Z,20.97
2018-09-24T05:58:32.778Z,20.95
2018-09-24T05:59:32.402Z,20.98
2018-09-24T06:00:32.327Z,20.94
2018-09-24T06:01:32.550Z,20.94
2018-09-24T06:02:32.555Z,20.94
2018-09-24T06:03:32.468Z,20.97
2018-09-24T06:04:32.598Z,20.94
2018-09-24T06:05:32.595Z,20.95
2018-09-24T06:06:32.212Z,20.97
2018-09-24T06:07:32.389Z,20.94
2018-09-24T06:08:32.359Z,20.97
2018-09-24T06:09:32.438Z,20.97
2018-09-24T06:10:32.292Z,20.97
2018-09-24T06:11:32.562Z,20.97
2018-09-24T06:12:33.328Z,20.97
2018-09-24T06:13:33.004Z,20.97
2018-09-24T06:14:32.354Z,20.98
2018-09-24T06:15:32.409Z,20.95
2018-09-24T06:16:32.235Z,20.95
2018-09-24T06:17:32.548Z,20.95
2018-09-24T06:18:32.314Z,20.98
2018-09-24T06:19:32.433Z,20.95
2018-09-24T06:20:32.238Z,20.97
2018-09-24T06:21:32.589Z,20.97
2018-09-24T06:22:32.355Z,20.97
2018-09-24T06:23:32.996Z,20.95
2018-09-24T06:24:32.267Z,20.97
2018-09-24T06:25:32.862Z,20.98
2018-09-24T06:26:32.530Z,20.94
2018-09-24T06:27:32.374Z,20.95
2018-09-24T06:28:33.726Z,20.97
2018-09-24T06:29:32.418Z,20.98
2018-09-24T06:30:32.266Z,20.95
2018-09-24T06:31:32.830Z,20.97
2018-09-24T06:32:32.451Z,20.95
2018-09-24T06:33:32.675Z,20.95
2018-09-24T06:34:32.316Z,20.97
2018-09-24T06:35:32.530Z,20.97
2018-09-24T06:36:32.382Z,20.97
2018-09-24T06:37:32.438Z,20.94
2018-09-24T06:38:32.410Z,20.94
2018-09-24T06:39:32.370Z,20.95
2018-09-24T06:40:32.319Z,20.97
2018-09-24T06:41:32.511Z,20.97
2018-09-24T06:42:32.204Z,20.94
2018-09-24T06:43:32.378Z,20.92
2018-09-24T06:44:32.656Z,20.95
2018-09-24T06:45:32.481Z,20.95
2018-09-24T06:46:32.997Z,20.94
2018-09-24T06:47:32.438Z,20.98
2018-09-24T06:48:32.217Z,20.97
2018-09-24T06:49:33.170Z,20.95
2018-09-24T06:50:32.210Z,20.92
2018-09-24T06:51:32.439Z,20.95
2018-09-24T06:52:32.285Z,20.95
2018-09-24T06:53:32.741Z,20.95
2018-09-24T06:54:32.360Z,20.95
2018-09-24T06:55:32.447Z,20.95
2018-09-24T06:56:32.549Z,20.94
2018-09-24T06:57:32.438Z,20.94
2018-09-24T06:58:32.562Z,20.97
2018-09-24T06:59:33.104Z,20.97
2018-09-24T07:00:32.386Z,20.95
2018-09-24T07:01:32.497Z,20.97
2018-09-24T07:02:32.446Z,20.95
2018-09-24T07:03:32.737Z,20.98
2018-09-24T07:04:32.332Z,20.98
2018-09-24T07:05:33.821Z,20.98
2018-09-24T07:06:32.278Z,20.98
2018-09-24T07:07:32.514Z,20.95
2018-09-24T07:08:32.435Z,20.97
2018-09-24T07:09:32.665Z,20.98
2018-09-24T07:10:32.722Z,20.95
2018-09-24T07:11:32.477Z,20.94
2018-09-24T07:12:32.342Z,20.97
2018-09-24T07:13:32.506Z,20.94
2018-09-24T07:14:32.270Z,20.91
2018-09-24T07:15:32.435Z,20.89
2018-09-24T07:16:32.511Z,20.89
2018-09-24T07:17:32.688Z,20.95
2018-09-24T07:18:32.879Z,20.94
2018-09-24T07:19:32.642Z,20.94
2018-09-24T07:20:32.554Z,20.94
2018-09-24T07:21:33.579Z,20.91
2018-09-24T07:22:32.376Z,20.92
2018-09-24T07:23:32.558Z,20.95
2018-09-24T07:24:32.347Z,20.94
2018-09-24T07:25:32.429Z,20.95
2018-09-24T07:26:32.783Z,20.95
2018-09-24T07:27:33.076Z,20.95
2018-09-24T07:28:32.664Z,20.92
2018-09-24T07:29:32.541Z,20.97
2018-09-24T07:30:32.513Z,20.94
2018-09-24T07:31:32.719Z,20.94
2018-09-24T07:32:32.374Z,20.94
2018-09-24T07:33:32.358Z,20.94
2018-09-24T07:34:32.352Z,20.95
2018-09-24T07:35:32.599Z,20.94
2018-09-24T07:36:32.326Z,20.95
2018-09-24T07:37:32.548Z,20.94
2018-09-24T07:38:33.643Z,20.94
2018-09-24T07:39:32.531Z,20.94
2018-09-24T07:40:32.336Z,20.95
2018-09-24T07:41:32.444Z,20.92
2018-09-24T07:42:32.409Z,20.97
2018-09-24T07:43:33.811Z,20.95
2018-09-24T07:44:32.216Z,20.95
2018-09-24T07:45:32.541Z,20.95
2018-09-24T07:46:32.319Z,20.94
2018-09-24T07:47:32.626Z,20.97
2018-09-24T07:48:32.385Z,20.95
2018-09-24T07:49:32.904Z,20.94
2018-09-24T07:50:32.524Z,20.95
2018-09-24T07:51:32.612Z,20.94
2018-09-24T07:52:32.526Z,20.94
2018-09-24T07:53:32.455Z,20.92
2018-09-24T07:54:32.617Z,20.94
2018-09-24T07:55:33.482Z,20.94
2018-09-24T07:56:32.456Z,20.95
2018-09-24T07:57:32.600Z,20.95
2018-09-24T07:58:32.696Z,20.95
2018-09-24T07:59:32.855Z,20.92
2018-09-24T08:00:32.327Z,20.94
2018-09-24T08:01:32.586Z,20.94
2018-09-24T08:02:32.458Z,20.91
2018-09-24T08:03:32.598Z,20.92
2018-09-24T08:04:32.657Z,20.94
2018-09-24T08:05:32.607Z,20.92
2018-09-24T08:06:32.965Z,20.94
2018-09-24T08:07:33.609Z,20.94
2018-09-24T08:08:32.380Z,20.91
2018-09-24T08:09:32.832Z,20.94
2018-09-24T08:10:32.714Z,20.92
2018-09-24T08:11:32.686Z,20.92
2018-09-24T08:12:32.487Z,20.94
2018-09-24T08:13:32.552Z,20.94
2018-09-24T08:14:32.561Z,20.95
2018-09-24T08:15:32.633Z,20.95
2018-09-24T08:16:32.662Z,20.92
2018-09-24T08:17:32.616Z,20.94
2018-09-24T08:18:32.321Z,20.94
2018-09-24T08:19:32.597Z,20.95
2018-09-24T08:20:32.385Z,20.95
2018-09-24T08:21:32.840Z,20.92
2018-09-24T08:22:32.429Z,20.94
2018-09-24T08:23:32.391Z,20.92
2018-09-24T08:24:32.423Z,20.92
2018-09-24T08:25:32.496Z,20.94
2018-09-24T08:26:32.348Z,20.94
2018-09-24T08:27:32.877Z,20.91
2018-09-24T08:28:32.768Z,20.95
2018-09-24T08:29:32.528Z,20.92
2018-09-24T08:30:32.459Z,20.92
2018-09-24T08:31:32.902Z,20.92
2018-09-24T08:32:32.446Z,20.91
2018-09-24T08:33:32.513Z,20.94
2018-09-24T08:34:32.270Z,20.92
2018-09-24T08:35:32.697Z,20.91
2018-09-24T08:36:32.429Z,20.92
2018-09-24T08:37:32.688Z,20.89
2018-09-24T08:38:32.358Z,20.92
2018-09-24T08:39:32.746Z,20.92
2018-09-24T08:40:32.382Z,20.88
2018-09-24T08:41:32.860Z,20.89
2018-09-24T08:42:32.239Z,20.91
2018-09-24T08:43:32.836Z,20.91
2018-09-24T08:44:32.369Z,20.94
2018-09-24T08:45:32.637Z,20.89
2018-09-24T08:46:32.323Z,20.89
2018-09-24T08:47:32.277Z,20.91
2018-09-24T08:48:32.336Z,20.91
2018-09-24T08:49:32.708Z,20.91
2018-09-24T08:50:32.849Z,20.88
2018-09-24T08:51:32.356Z,20.88
2018-09-24T08:52:32.483Z,20.87
2018-09-24T08:53:32.609Z,20.89
2018-09-24T08:54:32.434Z,20.91
2018-09-24T08:55:32.401Z,20.88
2018-09-24T08:56:32.912Z,20.88
2018-09-24T08:57:32.516Z,20.87
2018-09-24T08:58:32.708Z,20.85
2018-09-24T08:59:32.769Z,20.85
2018-09-24T09:00:32.549Z,20.84
2018-09-24T09:01:32.565Z,20.85
2018-09-24T09:02:33.012Z,20.84
2018-09-24T09:03:32.430Z,20.84
2018-09-24T09:04:32.343Z,20.82
2018-09-24T09:05:32.407Z,20.82
2018-09-24T09:06:32.360Z,20.85
2018-09-24T09:07:32.561Z,20.81
2018-09-24T09:08:32.555Z,20.85
2018-09-24T09:09:32.478Z,20.87
2018-09-24T09:10:32.342Z,20.89
2018-09-24T09:11:32.562Z,20.89
2018-09-24T09:12:32.317Z,20.91
2018-09-24T09:13:32.438Z,20.91
2018-09-24T09:14:32.388Z,20.92
2018-09-24T09:15:32.491Z,20.94
2018-09-24T09:16:32.515Z,20.94
2018-09-24T09:17:32.331Z,20.95
2018-09-24T09:18:32.381Z,20.94
2018-09-24T09:19:32.333Z,20.95
2018-09-24T09:20:32.641Z,20.97
2018-09-24T09:21:32.976Z,20.98
2018-09-24T09:22:32.550Z,20.99
2018-09-24T09:23:32.484Z,20.98
2018-09-24T09:24:32.552Z,20.98
2018-09-24T09:25:32.401Z,20.98
2018-09-24T09:26:32.631Z,21.01
2018-09-24T09:27:32.428Z,21.02
2018-09-24T09:28:32.869Z,21.02
2018-09-24T09:29:33.509Z,21.01
2018-09-24T09:30:32.404Z,21.03
2018-09-24T09:31:32.649Z,21.02
2018-09-24T09:32:33.434Z,21.03
2018-09-24T09:33:32.507Z,21.05
2018-09-24T09:34:32.846Z,21.03
2018-09-24T09:35:32.490Z,21.03
2018-09-24T09:36:32.430Z,21.03
2018-09-24T09:37:32.447Z,21.08
2018-09-24T09:38:32.326Z,21.08
2018-09-24T09:39:32.912Z,21.09
2018-09-24T09:40:32.644Z,21.08
2018-09-24T09:41:32.451Z,21.09
2018-09-24T09:42:32.497Z,21.12
2018-09-24T09:43:32.692Z,21.09
2018-09-24T09:44:32.408Z,21.09
2018-09-24T09:45:32.510Z,21.06
2018-09-24T09:46:32.723Z,21.09
2018-09-24T09:47:32.541Z,21.11
2018-09-24T09:48:32.630Z,21.11
2018-09-24T09:49:32.421Z,21.12
2018-09-24T09:50:32.387Z,21.14
2018-09-24T09:51:32.506Z,21.15
2018-09-24T09:52:32.416Z,21.11
2018-09-24T09:53:33.361Z,21.15
2018-09-24T09:54:32.554Z,21.15
2018-09-24T09:55:32.457Z,21.18
2018-09-24T09:56:32.289Z,21.15
2018-09-24T09:57:32.998Z,21.16
2018-09-24T09:58:32.752Z,21.16
2018-09-24T09:59:32.709Z,21.15
2018-09-24T10:00:33.161Z,21.15
2018-09-24T10:01:32.804Z,21.15
2018-09-24T10:02:32.305Z,21.15
2018-09-24T10:03:32.439Z,21.15
2018-09-24T10:04:32.505Z,21.15
2018-09-24T10:05:32.326Z,21.15
2018-09-24T10:06:32.996Z,21.16
2018-09-24T10:07:32.399Z,21.12
2018-09-24T10:08:32.675Z,21.14
2018-09-24T10:09:32.511Z,21.14
2018-09-24T10:10:32.930Z,21.12
2018-09-24T10:11:32.508Z,21.14
2018-09-24T10:12:32.537Z,21.14
2018-09-24T10:13:32.680Z,21.09
2018-09-24T10:14:32.369Z,21.12
2018-09-24T10:15:32.753Z,21.12
2018-09-24T10:16:32.394Z,21.11
2018-09-24T10:17:32.905Z,21.14
2018-09-24T10:18:32.716Z,21.12
2018-09-24T10:19:32.440Z,21.14
2018-09-24T10:20:32.310Z,21.12
2018-09-24T10:21:32.538Z,21.14
2018-09-24T10:22:33.258Z,21.14
2018-09-24T10:23:32.403Z,21.12
2018-09-24T10:24:32.575Z,21.15
2018-09-24T10:25:32.398Z,21.15
2018-09-24T10:26:32.546Z,21.15
2018-09-24T10:27:32.494Z,21.14
2018-09-24T10:28:32.471Z,21.16
2018-09-24T10:29:32.711Z,21.16
2018-09-24T10:30:33.216Z,21.18
2018-09-24T10:31:32.644Z,21.16
2018-09-24T10:32:32.342Z,21.19
2018-09-24T10:33:33.323Z,21.19
2018-09-24T10:34:32.534Z,21.18
2018-09-24T10:35:32.600Z,21.19
2018-09-24T10:36:32.480Z,21.19
2018-09-24T10:37:32.732Z,21.18
2018-09-24T10:38:32.386Z,21.22
2018-09-24T10:39:33.036Z,21.21
2018-09-24T10:40:32.391Z,21.21
2018-09-24T10:41:32.429Z,21.18
2018-09-24T10:42:32.509Z,21.21
2018-09-24T10:43:32.467Z,21.19
2018-09-24T10:44:32.450Z,21.22
2018-09-24T10:45:32.310Z,21.23
2018-09-24T10:46:32.366Z,21.23
2018-09-24T10:47:32.336Z,21.22
2018-09-24T10:48:32.542Z,21.22
2018-09-24T10:49:32.429Z,21.23
2018-09-24T10:50:32.510Z,21.22
2018-09-24T10:51:32.465Z,21.25
2018-09-24T10:52:32.427Z,21.23
2018-09-24T10:53:32.550Z,21.22
2018-09-24T10:54:32.441Z,21.22
2018-09-24T10:55:32.443Z,21.23
2018-09-24T10:56:32.837Z,21.23
2018-09-24T10:57:32.500Z,21.25
2018-09-24T10:58:32.330Z,21.22
2018-09-24T10:59:33.836Z,21.25
2018-09-24T11:00:32.392Z,21.22
2018-09-24T11:01:32.506Z,21.25
2018-09-24T11:02:32.978Z,21.25
2018-09-24T11:03:32.843Z,21.25
2018-09-24T11:04:32.543Z,21.25
2018-09-24T11:05:32.571Z,21.23
2018-09-24T11:06:32.335Z,21.23
2018-09-24T11:07:32.673Z,21.23
2018-09-24T11:08:32.559Z,21.26
2018-09-24T11:09:32.610Z,21.27
2018-09-24T11:10:32.659Z,21.27
2018-09-24T11:11:32.236Z,21.26
2018-09-24T11:12:32.609Z,21.26
2018-09-24T11:13:32.515Z,21.25
2018-09-24T11:14:32.592Z,21.26
2018-09-24T11:15:32.578Z,21.26
2018-09-24T11:16:34.496Z,21.27
2018-09-24T11:17:34.960Z,21.27
2018-09-24T11:18:32.549Z,21.27
2018-09-24T11:19:33.041Z,21.27
2018-09-24T11:20:32.293Z,21.29
2018-09-24T11:21:32.874Z,21.29
2018-09-24T11:22:32.489Z,21.3
2018-09-24T11:23:32.919Z,21.26
2018-09-24T11:24:32.588Z,21.29
2018-09-24T11:25:32.434Z,21.26
2018-09-24T11:27:32.357Z,21.27
2018-09-24T11:28:32.922Z,21.26
2018-09-24T11:29:33.622Z,21.23
2018-09-24T11:30:32.627Z,21.26
2018-09-24T11:31:32.531Z,21.26
2018-09-24T11:32:32.568Z,21.26
2018-09-24T11:33:32.861Z,21.27
2018-09-24T11:34:32.382Z,21.26
2018-09-24T11:35:32.433Z,21.25
2018-09-24T11:36:32.457Z,21.26
2018-09-24T11:37:33.594Z,21.25
2018-09-24T11:38:32.581Z,21.25
2018-09-24T11:39:32.298Z,21.23
2018-09-24T11:40:32.340Z,21.22
2018-09-24T11:41:32.502Z,21.23
2018-09-24T11:42:33.525Z,21.23
2018-09-24T11:43:32.285Z,21.22
2018-09-24T11:44:32.450Z,21.21
2018-09-24T11:45:32.481Z,21.22
2018-09-24T11:46:33.659Z,21.23
2018-09-24T11:47:32.665Z,21.22
2018-09-24T11:48:32.521Z,21.22
2018-09-24T11:49:32.261Z,21.21
2018-09-24T11:50:32.456Z,21.21
2018-09-24T11:51:32.557Z,21.21
2018-09-24T11:52:32.328Z,21.21
2018-09-24T11:53:32.787Z,21.21
2018-09-24T11:54:32.643Z,21.19
2018-09-24T11:55:32.650Z,21.22
2018-09-24T11:56:32.908Z,21.19
2018-09-24T11:57:33.443Z,21.19
2018-09-24T11:58:32.902Z,21.21
2018-09-24T11:59:33.518Z,21.21
2018-09-24T12:00:32.340Z,21.23
2018-09-24T12:01:32.432Z,21.22
2018-09-24T12:02:32.669Z,21.25
2018-09-24T12:03:32.693Z,21.25
2018-09-24T12:04:32.620Z,21.22
2018-09-24T12:05:32.420Z,21.26
2018-09-24T12:06:32.377Z,21.26
2018-09-24T12:07:32.272Z,21.23
2018-09-24T12:08:32.252Z,21.25
2018-09-24T12:09:32.481Z,21.25
2018-09-24T12:10:33.100Z,21.25
2018-09-24T12:11:32.256Z,21.23
2018-09-24T12:12:32.844Z,21.23
2018-09-24T12:13:32.940Z,21.25
2018-09-24T12:14:32.454Z,21.23
2018-09-24T12:15:32.422Z,21.23
2018-09-24T12:16:32.359Z,21.21
2018-09-24T12:17:32.607Z,21.22
2018-09-24T12:18:32.431Z,21.22
2018-09-24T12:19:32.681Z,21.22
2018-09-24T12:20:32.501Z,21.19
2018-09-24T12:21:32.367Z,21.19
2018-09-24T12:22:32.617Z,21.18
2018-09-24T12:23:32.481Z,21.18
2018-09-24T12:24:32.402Z,21.19
2018-09-24T12:25:32.522Z,21.21
2018-09-24T12:26:32.732Z,21.21
2018-09-24T12:27:33.391Z,21.19
2018-09-24T12:28:32.421Z,21.19
2018-09-24T12:29:32.549Z,21.18
2018-09-24T12:30:32.424Z,21.19
2018-09-24T12:31:32.783Z,21.18
2018-09-24T12:32:32.444Z,21.18
2018-09-24T12:33:32.462Z,21.16
2018-09-24T12:34:32.211Z,21.14
2018-09-24T12:35:32.591Z,21.16
2018-09-24T12:36:32.616Z,21.15
2018-09-24T12:37:32.588Z,21.14
2018-09-24T12:38:32.987Z,21.16
2018-09-24T12:39:32.517Z,21.18
2018-09-24T12:40:32.336Z,21.15
2018-09-24T12:41:32.335Z,21.16
2018-09-24T12:42:32.565Z,21.14
2018-09-24T12:43:32.419Z,21.12
2018-09-24T12:44:32.439Z,21.12
2018-09-24T12:45:32.441Z,21.11
2018-09-24T12:46:32.503Z,21.12
2018-09-24T12:47:32.487Z,21.14
2018-09-24T12:48:32.679Z,21.11
2018-09-24T12:49:32.566Z,21.12
2018-09-24T12:50:32.388Z,21.11
2018-09-24T12:51:32.631Z,21.08
2018-09-24T12:52:32.496Z,21.11
2018-09-24T12:53:33.480Z,21.05